Buoy 21901

sailwx.info

Track history (hours):
 
Tides and Currents Weather Stations Pressure Air Temp Water Temp Dewpoint Dewpoint Depression Visibility Wind Speed Wind Dir Waves Ship Positions

Drifting buoy 21901

Last reported at 2017-Sep-21 18:50 UTC. Time now 2017-Sep-21 23:14 UTC.
Position N 19°07' W 140°56'.

Barometer 1016.6 mb
Water temperature 26.2 ° C

Date/timePositionNaut miles runAvg speedWind from/ knotsBaromVisibWave heightAir tempDewpointWater temp
2017-Sep-21 18:50N 19°07' W 140°56'1 0.6 1016.6 26.2
2017-Sep-21 17:50N 19°07' W 140°55'1 0.8 1016.5 26.1
2017-Sep-21 16:50N 19°07' W 140°55'0 0.0 1016.2 26.1
2017-Sep-21 15:50N 19°07' W 140°55'1 0.6 1015.6 26.1
2017-Sep-21 14:50N 19°07' W 140°54'0 0.0 1015.4 26.1
2017-Sep-21 13:50N 19°07' W 140°54'3 1.0 1015.2 26.1
2017-Sep-21 10:50N 19°08' W 140°51'1 0.1 1015.7 26.1
2017-Sep-21 06:50N 19°08' W 140°50'1 0.6 1016.7 26.2
2017-Sep-21 05:50N 19°08' W 140°50'1 0.8 1016.4 26.2
2017-Sep-21 04:50N 19°08' W 140°49'1 0.6 1015.7 26.2
2017-Sep-21 03:50N 19°08' W 140°49'1 0.6 1014.9 26.2
2017-Sep-21 02:50N 19°08' W 140°49'1 0.8 1014.5 26.2
2017-Sep-21 01:50N 19°08' W 140°48'2 1.8 1014.2 26.3
2017-Sep-21 00:50N 19°08' W 140°46'3 3.5 1014.1 26.3
2017-Sep-20 23:50N 19°08' W 140°43'0 0.0 1014.2 26.3
2017-Sep-20 22:50N 19°08' W 140°43'1 0.3 1014.7 26.3
2017-Sep-20 19:50N 19°09' W 140°43'0 0.0 1016.5 26.2
2017-Sep-20 18:50N 19°09' W 140°43'2 1.7 1016.7 26.2
2017-Sep-20 17:50N 19°09' W 140°41'1 0.8 1016.6 26.1
2017-Sep-20 16:50N 19°08' W 140°41'1 0.6 1016.2 26.1
2017-Sep-20 15:50N 19°09' W 140°41'1 1.1 1015.8 26.1
2017-Sep-20 14:50N 19°09' W 140°40'0 0.0 1015.4 26.1
2017-Sep-20 13:50N 19°09' W 140°40'1 1.1 1015.1 26.1
2017-Sep-20 12:50N 19°09' W 140°38'3 3.5 1014.8 26.1
2017-Sep-20 11:50N 19°10' W 140°35'0 0.0 1015.0 26.1
2017-Sep-20 10:50N 19°10' W 140°35'1 0.3 1015.3 26.1
2017-Sep-20 06:50N 19°10' W 140°34'1 0.6 1016.2 26.2
2017-Sep-20 05:50N 19°09' W 140°34'1 0.6 1015.7 26.2
2017-Sep-20 04:50N 19°09' W 140°33'1 0.6 1015.0 26.2
2017-Sep-20 03:50N 19°09' W 140°32'2 1.7 1014.5 26.3
2017-Sep-20 02:50N 19°09' W 140°31'0 0.0 1014.1 26.3
2017-Sep-20 01:50N 19°09' W 140°31'2 1.7 1013.7 26.4
2017-Sep-20 00:50N 19°09' W 140°29'3 2.8 1013.6 26.4
2017-Sep-19 23:50N 19°09' W 140°26'0 0.0 1013.8 26.4
2017-Sep-19 19:50N 19°09' W 140°26'2 1.8 1015.9 26.4
2017-Sep-19 18:50N 19°10' W 140°24'1 0.3 1015.8 26.3
2017-Sep-19 16:50N 19°10' W 140°23'1 0.6 1015.4 26.3
2017-Sep-19 15:50N 19°10' W 140°23'1 1.3 1014.7 26.2
2017-Sep-19 14:50N 19°10' W 140°22'1 0.8 1014.4 26.2
2017-Sep-19 13:50N 19°10' W 140°21'1 0.8 1013.9 26.2
2017-Sep-19 12:50N 19°10' W 140°20'3 3.4 1013.8 26.2
2017-Sep-19 11:50N 19°12' W 140°17'0 0.0 1014.0 26.2
2017-Sep-19 10:50N 19°12' W 140°17'1 0.2 1014.3 26.2
2017-Sep-19 06:50N 19°13' W 140°17'1 1.3 1015.7 26.0
2017-Sep-19 05:50N 19°13' W 140°16'1 0.6 1015.4 26.0
2017-Sep-19 04:50N 19°13' W 140°15'0 0.0 1015.1 26.0
2017-Sep-19 03:50N 19°13' W 140°15'1 1.3 1014.3 26.0
2017-Sep-19 02:50N 19°14' W 140°14'1 0.6 1013.7 26.0
2017-Sep-19 01:50N 19°14' W 140°13'1 1.1 1013.3 26.0
2017-Sep-19 00:50N 19°14' W 140°12'3 3.1 1013.2 26.0
2017-Sep-18 23:50N 19°15' W 140°09'0 0.0 1013.5 26.0
2017-Sep-18 22:50N 19°15' W 140°09'1 0.2 1013.7 26.0
2017-Sep-18 19:50N 19°15' W 140°08'0 0.0 1015.8 25.7
2017-Sep-18 18:50N 19°15' W 140°08'1 1.1 1015.9 25.7
2017-Sep-18 17:50N 19°15' W 140°07'0 0.0 1015.7 25.7
2017-Sep-18 16:50N 19°15' W 140°07'1 1.1 1015.0 25.7
2017-Sep-18 15:50N 19°15' W 140°06'1 1.1 1014.2 25.7
2017-Sep-18 14:50N 19°15' W 140°05'0 0.0 1013.6 25.7
2017-Sep-18 13:50N 19°15' W 140°05'7 7.4 1013.2 25.8
2017-Sep-18 12:50N 19°15' W 139°57'6 5.7 1012.9 25.8
2017-Sep-18 11:50N 19°15' W 140°03'6 1.4 1013.2 25.9
2017-Sep-18 07:50N 19°15' W 139°57'2 1.7 1015.7 26.0
2017-Sep-18 06:50N 19°15' W 139°55'2 1.7 1015.9 26.0
2017-Sep-18 05:50N 19°15' W 139°53'1 0.8 1015.5 26.0
2017-Sep-18 04:50N 19°16' W 139°53'1 1.1 1014.8 26.0
2017-Sep-18 03:50N 19°16' W 139°52'1 0.6 1014.4 26.0
2017-Sep-18 02:50N 19°16' W 139°51'1 1.3 1014.0 26.0
2017-Sep-18 01:50N 19°16' W 139°50'2 1.8 1013.8 26.0
2017-Sep-18 00:50N 19°17' W 139°48'0 0.0 1013.7 26.0
2017-Sep-17 23:50N 19°17' W 139°48'7 1.5 1013.8 26.0
2017-Sep-17 18:50N 19°20' W 139°41'1 0.6 1016.4 26.0
2017-Sep-17 17:50N 19°20' W 139°40'2 1.6 1016.0 26.0
2017-Sep-17 16:50N 19°21' W 139°39'2 1.7 1015.5 26.0
2017-Sep-17 15:50N 19°21' W 139°37'0 0.0 1015.0 26.0
2017-Sep-17 14:50N 19°21' W 139°37'2 1.7 1014.6 25.9
2017-Sep-17 13:50N 19°21' W 139°35'1 0.6 1014.1 25.9
2017-Sep-17 12:50N 19°20' W 139°35'3 2.6 1013.8 25.9
2017-Sep-17 11:50N 19°22' W 139°33'6 1.3 1014.0 26.0
2017-Sep-17 06:50N 19°23' W 139°26'1 1.3 1016.3 26.0
2017-Sep-17 05:50N 19°24' W 139°25'2 2.3 1016.0 26.0
2017-Sep-17 04:50N 19°25' W 139°23'0 0.0 1015.4 26.0
2017-Sep-17 03:50N 19°25' W 139°23'2 2.1 1014.6 26.0
2017-Sep-17 02:50N 19°26' W 139°21'1 0.6 1014.2 26.0
2017-Sep-17 01:50N 19°26' W 139°20'0 0.0 1013.7 26.0
2017-Sep-17 00:50N 19°26' W 139°20'0 0.0 1013.5 26.0
2017-Sep-16 23:50N 19°26' W 139°20'7 6.9 1013.9 26.0
2017-Sep-16 22:50N 19°29' W 139°14'4 3.6 1014.4 26.0
2017-Sep-16 21:50N 19°28' W 139°17'7 2.2 1015.1 26.0
2017-Sep-16 18:50N 19°30' W 139°11'0 0.0 1016.8 25.9
2017-Sep-16 17:50N 19°30' W 139°11'0 0.0 1016.9 25.9
2017-Sep-16 16:50N 19°30' W 139°11'2 1.7 1016.6 25.8
2017-Sep-16 15:50N 19°30' W 139°09'0 0.0 1015.8 25.8
2017-Sep-16 14:50N 19°30' W 139°09'2 1.7 1015.4 25.8
2017-Sep-16 13:50N 19°30' W 139°07'1 0.8 1015.0 25.8
2017-Sep-16 12:50N 19°31' W 139°07'8 7.7 1014.6 25.8
2017-Sep-16 11:50N 19°33' W 138°59'0 0.0 1014.7 25.8
2017-Sep-16 09:50N 19°33' W 138°59'0 0.0 1015.9 25.7
2017-Sep-16 06:50N 19°33' W 138°59'2 2.1 1016.7 25.8
2017-Sep-16 05:50N 19°34' W 138°57'2 1.8 1016.4 25.8
2017-Sep-16 04:50N 19°35' W 138°55'0 0.0 1015.7 25.8
2017-Sep-16 03:50N 19°35' W 138°55'1 1.3 1014.9 25.8
2017-Sep-16 02:50N 19°35' W 138°54'0 0.0 1014.4 25.8
2017-Sep-16 01:50N 19°35' W 138°54'2 2.1 1014.2 25.8
2017-Sep-16 00:50N 19°37' W 138°52'2 2.5 1014.1 25.8
2017-Sep-15 23:50N 19°38' W 138°50'2 2.5 1013.8 25.8
2017-Sep-15 22:50N 19°40' W 138°49'2 2.5 1014.3 25.7
2017-Sep-15 21:50N 19°38' W 138°50'2 1.2 1015.1 25.7
2017-Sep-15 19:50N 19°40' W 138°49'1 1.3 1016.5 25.6
2017-Sep-15 18:50N 19°41' W 138°47'1 1.1 1016.8 25.5
2017-Sep-15 17:50N 19°41' W 138°46'0 0.0 1016.8 25.5
2017-Sep-15 16:50N 19°41' W 138°46'1 0.6 1016.4 25.5
2017-Sep-15 15:50N 19°41' W 138°46'1 1.3 1015.7 25.5
2017-Sep-15 14:50N 19°41' W 138°44'0 0.0 1014.9 25.5
2017-Sep-15 13:50N 19°41' W 138°44'1 0.6 1014.6 25.5
2017-Sep-15 12:50N 19°42' W 138°44'6 5.6 1014.3 25.5
2017-Sep-15 11:50N 19°44' W 138°39'0 0.0 1014.4 25.5
2017-Sep-15 10:50N 19°44' W 138°39'1 0.1 1014.6 25.5
2017-Sep-15 06:50N 19°44' W 138°38'1 1.3 1015.9 25.2
2017-Sep-15 05:50N 19°45' W 138°37'1 0.8 1015.7 25.2
2017-Sep-15 04:50N 19°46' W 138°37'1 0.6 1015.0 25.2
2017-Sep-15 03:50N 19°46' W 138°37'2 1.8 1014.4 25.3
2017-Sep-15 02:50N 19°46' W 138°35'3 3.1 1013.6 25.3
2017-Sep-15 01:50N 19°47' W 138°32'0 0.0 1013.2 25.3
2017-Sep-15 00:50N 19°47' W 138°32'2 1.8 1013.0 25.4
2017-Sep-14 23:50N 19°48' W 138°31'3 3.1 1013.1 25.4
2017-Sep-14 22:50N 19°49' W 138°28'1 0.2 1013.5 25.4
2017-Sep-14 19:50N 19°49' W 138°27'0 0.0 1015.1 25.3
2017-Sep-14 18:50N 19°49' W 138°27'2 1.8 1015.4 25.2
2017-Sep-14 17:50N 19°50' W 138°25'1 1.1 1015.2 25.2
2017-Sep-14 16:50N 19°50' W 138°24'0 0.0 1014.8 25.2
2017-Sep-14 15:50N 19°50' W 138°24'3 1.7 1014.4 25.2
2017-Sep-14 13:50N 19°52' W 138°21'0 0.0 1013.5 25.2
2017-Sep-14 12:50N 19°52' W 138°21'5 4.6 1013.2 25.2
2017-Sep-14 11:50N 19°54' W 138°17'0 0.0 1013.4 25.2
2017-Sep-14 07:50N 19°54' W 138°17'2 2.1 1014.9 25.3
2017-Sep-14 06:50N 19°55' W 138°15'1 1.3 1015.0 25.3
2017-Sep-14 05:50N 19°56' W 138°14'0 0.0 1014.6 25.4
2017-Sep-14 04:50N 19°56' W 138°14'2 1.7 1014.0 25.5
2017-Sep-14 03:50N 19°56' W 138°13'1 0.8 1013.3 25.5
2017-Sep-14 02:50N 19°57' W 138°12'1 1.3 1012.7 25.6
2017-Sep-14 01:50N 19°58' W 138°11'0 0.0 1012.4 25.6
2017-Sep-14 00:50N 19°58' W 138°11'1 1.3 1012.5 25.6
2017-Sep-13 23:50N 19°59' W 138°10'0 0.0 1012.5 25.7
2017-Sep-13 22:50N 19°59' W 138°10'3 1.1 1012.9 25.5
2017-Sep-13 19:50N 19°59' W 138°07'0 0.0 1014.8 25.3
2017-Sep-13 18:50N 19°59' W 138°07'1 0.6 1015.2 25.4
2017-Sep-13 17:50N 20°00' W 138°07'0 0.0 1015.2 25.4
2017-Sep-13 16:50N 20°00' W 138°07'2 1.7 1014.8 25.2
2017-Sep-13 15:50N 20°00' W 138°05'1 1.3 1014.5 25.3
2017-Sep-13 14:50N 20°01' W 138°04'1 0.6 1014.0 25.2
2017-Sep-13 13:50N 20°00' W 138°04'1 1.3 1013.4 25.4
2017-Sep-13 12:50N 20°01' W 138°02'5 4.5 1013.3 25.5
2017-Sep-13 11:50N 20°01' W 137°58'5 5.1 1013.3 25.5
2017-Sep-13 10:50N 20°01' W 138°03'5 1.7 1013.7 25.4
2017-Sep-13 07:50N 20°01' W 137°58'1 0.6 1014.7 25.5
2017-Sep-13 05:50N 20°01' W 137°56'1 1.3 1014.9 25.5
2017-Sep-13 04:50N 20°02' W 137°55'1 0.8 1014.1 25.5
2017-Sep-13 03:50N 20°02' W 137°55'1 1.3 1013.4 25.5
2017-Sep-13 02:50N 20°03' W 137°53'1 0.8 1012.9 25.6
2017-Sep-13 01:50N 20°04' W 137°53'0 0.0 1012.6 25.6
2017-Sep-13 00:50N 20°04' W 137°53'2 2.1 1012.7 25.6
2017-Sep-12 23:50N 20°05' W 137°51'0 0.0 1012.7 25.6
2017-Sep-12 22:50N 20°05' W 137°51'2 0.6
2017-Sep-12 18:50N 20°07' W 137°49'0 0.0 1014.9 25.4
2017-Sep-12 17:50N 20°07' W 137°49'0 0.0 1015.0 25.4
2017-Sep-12 16:50N 20°07' W 137°49'1 0.6 1014.6 25.4
2017-Sep-12 15:50N 20°07' W 137°49'0 0.0 1014.1 25.3
2017-Sep-12 14:50N 20°07' W 137°49'0 0.0 1013.6 25.4
2017-Sep-12 13:50N 20°07' W 137°49'0 0.0 1013.5 25.4
2017-Sep-12 12:50N 20°07' W 137°49'1 1.3 1013.4 25.4
2017-Sep-12 11:50N 20°06' W 137°49'2 1.9 1013.8 25.4
2017-Sep-12 10:50N 20°08' W 137°49'2 0.5 1014.1 25.5
2017-Sep-12 06:50N 20°06' W 137°49'1 0.6 1015.6 25.4
2017-Sep-12 05:50N 20°06' W 137°48'1 0.6 1015.2 25.4
2017-Sep-12 04:50N 20°06' W 137°47'1 0.6 1014.5 25.4
2017-Sep-12 03:50N 20°06' W 137°47'1 0.8 1013.7 25.4
2017-Sep-12 02:50N 20°07' W 137°46'1 0.6 1013.4 25.4
2017-Sep-12 01:50N 20°07' W 137°46'0 0.0 1013.0 25.4
2017-Sep-12 00:50N 20°07' W 137°46'1 1.1 1012.8 25.5
2017-Sep-11 23:50N 20°07' W 137°44'0 0.0 1013.0 25.5
2017-Sep-11 22:50N 20°07' W 137°44'4 0.9 1013.5 25.4
2017-Sep-11 18:50N 20°08' W 137°41'   1015.4 25.2
Track history (hours):
 
Tides and Currents Weather Stations Pressure Air Temp Water Temp Dewpoint Dewpoint Depression Visibility Wind Speed Wind Dir Waves Ship Positions

Drifting buoy 21901

Last reported at 2017-Sep-21 18:50 UTC. Time now 2017-Sep-21 23:14 UTC.
Position N 19°07' W 140°56'.

Barometer 1016.6 mb
Water temperature 26.2 ° C

Date/timePositionNaut miles runAvg speedWind from/ knotsBaromVisibWave heightAir tempDewpointWater temp
2017-Sep-21 18:50N 19°07' W 140°56'1 0.6 1016.6 26.2
2017-Sep-21 17:50N 19°07' W 140°55'1 0.8 1016.5 26.1
2017-Sep-21 16:50N 19°07' W 140°55'0 0.0 1016.2 26.1
2017-Sep-21 15:50N 19°07' W 140°55'1 0.6 1015.6 26.1
2017-Sep-21 14:50N 19°07' W 140°54'0 0.0 1015.4 26.1
2017-Sep-21 13:50N 19°07' W 140°54'3 1.0 1015.2 26.1
2017-Sep-21 10:50N 19°08' W 140°51'1 0.1 1015.7 26.1
2017-Sep-21 06:50N 19°08' W 140°50'1 0.6 1016.7 26.2
2017-Sep-21 05:50N 19°08' W 140°50'1 0.8 1016.4 26.2
2017-Sep-21 04:50N 19°08' W 140°49'1 0.6 1015.7 26.2
2017-Sep-21 03:50N 19°08' W 140°49'1 0.6 1014.9 26.2
2017-Sep-21 02:50N 19°08' W 140°49'1 0.8 1014.5 26.2
2017-Sep-21 01:50N 19°08' W 140°48'2 1.8 1014.2 26.3
2017-Sep-21 00:50N 19°08' W 140°46'3 3.5 1014.1 26.3
2017-Sep-20 23:50N 19°08' W 140°43'0 0.0 1014.2 26.3
2017-Sep-20 22:50N 19°08' W 140°43'1 0.3 1014.7 26.3
2017-Sep-20 19:50N 19°09' W 140°43'0 0.0 1016.5 26.2
2017-Sep-20 18:50N 19°09' W 140°43'2 1.7 1016.7 26.2
2017-Sep-20 17:50N 19°09' W 140°41'1 0.8 1016.6 26.1
2017-Sep-20 16:50N 19°08' W 140°41'1 0.6 1016.2 26.1
2017-Sep-20 15:50N 19°09' W 140°41'1 1.1 1015.8 26.1
2017-Sep-20 14:50N 19°09' W 140°40'0 0.0 1015.4 26.1
2017-Sep-20 13:50N 19°09' W 140°40'1 1.1 1015.1 26.1
2017-Sep-20 12:50N 19°09' W 140°38'3 3.5 1014.8 26.1
2017-Sep-20 11:50N 19°10' W 140°35'0 0.0 1015.0 26.1
2017-Sep-20 10:50N 19°10' W 140°35'1 0.3 1015.3 26.1
2017-Sep-20 06:50N 19°10' W 140°34'1 0.6 1016.2 26.2
2017-Sep-20 05:50N 19°09' W 140°34'1 0.6 1015.7 26.2
2017-Sep-20 04:50N 19°09' W 140°33'1 0.6 1015.0 26.2
2017-Sep-20 03:50N 19°09' W 140°32'2 1.7 1014.5 26.3
2017-Sep-20 02:50N 19°09' W 140°31'0 0.0 1014.1 26.3
2017-Sep-20 01:50N 19°09' W 140°31'2 1.7 1013.7 26.4
2017-Sep-20 00:50N 19°09' W 140°29'3 2.8 1013.6 26.4
2017-Sep-19 23:50N 19°09' W 140°26'0 0.0 1013.8 26.4
2017-Sep-19 19:50N 19°09' W 140°26'2 1.8 1015.9 26.4
2017-Sep-19 18:50N 19°10' W 140°24'1 0.3 1015.8 26.3
2017-Sep-19 16:50N 19°10' W 140°23'1 0.6 1015.4 26.3
2017-Sep-19 15:50N 19°10' W 140°23'1 1.3 1014.7 26.2
2017-Sep-19 14:50N 19°10' W 140°22'1 0.8 1014.4 26.2
2017-Sep-19 13:50N 19°10' W 140°21'1 0.8 1013.9 26.2
2017-Sep-19 12:50N 19°10' W 140°20'3 3.4 1013.8 26.2
2017-Sep-19 11:50N 19°12' W 140°17'0 0.0 1014.0 26.2
2017-Sep-19 10:50N 19°12' W 140°17'1 0.2 1014.3 26.2
2017-Sep-19 06:50N 19°13' W 140°17'1 1.3 1015.7 26.0
2017-Sep-19 05:50N 19°13' W 140°16'1 0.6 1015.4 26.0
2017-Sep-19 04:50N 19°13' W 140°15'0 0.0 1015.1 26.0
2017-Sep-19 03:50N 19°13' W 140°15'1 1.3 1014.3 26.0
2017-Sep-19 02:50N 19°14' W 140°14'1 0.6 1013.7 26.0
2017-Sep-19 01:50N 19°14' W 140°13'1 1.1 1013.3 26.0
2017-Sep-19 00:50N 19°14' W 140°12'3 3.1 1013.2 26.0
2017-Sep-18 23:50N 19°15' W 140°09'0 0.0 1013.5 26.0
2017-Sep-18 22:50N 19°15' W 140°09'1 0.2 1013.7 26.0
2017-Sep-18 19:50N 19°15' W 140°08'0 0.0 1015.8 25.7
2017-Sep-18 18:50N 19°15' W 140°08'1 1.1 1015.9 25.7
2017-Sep-18 17:50N 19°15' W 140°07'0 0.0 1015.7 25.7
2017-Sep-18 16:50N 19°15' W 140°07'1 1.1 1015.0 25.7
2017-Sep-18 15:50N 19°15' W 140°06'1 1.1 1014.2 25.7
2017-Sep-18 14:50N 19°15' W 140°05'0 0.0 1013.6 25.7
2017-Sep-18 13:50N 19°15' W 140°05'7 7.4 1013.2 25.8
2017-Sep-18 12:50N 19°15' W 139°57'6 5.7 1012.9 25.8
2017-Sep-18 11:50N 19°15' W 140°03'6 1.4 1013.2 25.9
2017-Sep-18 07:50N 19°15' W 139°57'2 1.7 1015.7 26.0
2017-Sep-18 06:50N 19°15' W 139°55'2 1.7 1015.9 26.0
2017-Sep-18 05:50N 19°15' W 139°53'1 0.8 1015.5 26.0
2017-Sep-18 04:50N 19°16' W 139°53'1 1.1 1014.8 26.0
2017-Sep-18 03:50N 19°16' W 139°52'1 0.6 1014.4 26.0
2017-Sep-18 02:50N 19°16' W 139°51'1 1.3 1014.0 26.0
2017-Sep-18 01:50N 19°16' W 139°50'2 1.8 1013.8 26.0
2017-Sep-18 00:50N 19°17' W 139°48'0 0.0 1013.7 26.0
2017-Sep-17 23:50N 19°17' W 139°48'7 1.5 1013.8 26.0
2017-Sep-17 18:50N 19°20' W 139°41'1 0.6 1016.4 26.0
2017-Sep-17 17:50N 19°20' W 139°40'2 1.6 1016.0 26.0
2017-Sep-17 16:50N 19°21' W 139°39'2 1.7 1015.5 26.0
2017-Sep-17 15:50N 19°21' W 139°37'0 0.0 1015.0 26.0
2017-Sep-17 14:50N 19°21' W 139°37'2 1.7 1014.6 25.9
2017-Sep-17 13:50N 19°21' W 139°35'1 0.6 1014.1 25.9
2017-Sep-17 12:50N 19°20' W 139°35'3 2.6 1013.8 25.9
2017-Sep-17 11:50N 19°22' W 139°33'6 1.3 1014.0 26.0
2017-Sep-17 06:50N 19°23' W 139°26'1 1.3 1016.3 26.0
2017-Sep-17 05:50N 19°24' W 139°25'2 2.3 1016.0 26.0
2017-Sep-17 04:50N 19°25' W 139°23'0 0.0 1015.4 26.0
2017-Sep-17 03:50N 19°25' W 139°23'2 2.1 1014.6 26.0
2017-Sep-17 02:50N 19°26' W 139°21'1 0.6 1014.2 26.0
2017-Sep-17 01:50N 19°26' W 139°20'0 0.0 1013.7 26.0
2017-Sep-17 00:50N 19°26' W 139°20'0 0.0 1013.5 26.0
2017-Sep-16 23:50N 19°26' W 139°20'7 6.9 1013.9 26.0
2017-Sep-16 22:50N 19°29' W 139°14'4 3.6 1014.4 26.0
2017-Sep-16 21:50N 19°28' W 139°17'7 2.2 1015.1 26.0
2017-Sep-16 18:50N 19°30' W 139°11'0 0.0 1016.8 25.9
2017-Sep-16 17:50N 19°30' W 139°11'0 0.0 1016.9 25.9
2017-Sep-16 16:50N 19°30' W 139°11'2 1.7 1016.6 25.8
2017-Sep-16 15:50N 19°30' W 139°09'0 0.0 1015.8 25.8
2017-Sep-16 14:50N 19°30' W 139°09'2 1.7 1015.4 25.8
2017-Sep-16 13:50N 19°30' W 139°07'1 0.8 1015.0 25.8
2017-Sep-16 12:50N 19°31' W 139°07'8 7.7 1014.6 25.8
2017-Sep-16 11:50N 19°33' W 138°59'0 0.0 1014.7 25.8
2017-Sep-16 09:50N 19°33' W 138°59'0 0.0 1015.9 25.7
2017-Sep-16 06:50N 19°33' W 138°59'2 2.1 1016.7 25.8
2017-Sep-16 05:50N 19°34' W 138°57'2 1.8 1016.4 25.8
2017-Sep-16 04:50N 19°35' W 138°55'0 0.0 1015.7 25.8
2017-Sep-16 03:50N 19°35' W 138°55'1 1.3 1014.9 25.8
2017-Sep-16 02:50N 19°35' W 138°54'0 0.0 1014.4 25.8
2017-Sep-16 01:50N 19°35' W 138°54'2 2.1 1014.2 25.8
2017-Sep-16 00:50N 19°37' W 138°52'2 2.5 1014.1 25.8
2017-Sep-15 23:50N 19°38' W 138°50'2 2.5 1013.8 25.8
2017-Sep-15 22:50N 19°40' W 138°49'2 2.5 1014.3 25.7
2017-Sep-15 21:50N 19°38' W 138°50'2 1.2 1015.1 25.7
2017-Sep-15 19:50N 19°40' W 138°49'1 1.3 1016.5 25.6
2017-Sep-15 18:50N 19°41' W 138°47'1 1.1 1016.8 25.5
2017-Sep-15 17:50N 19°41' W 138°46'0 0.0 1016.8 25.5
2017-Sep-15 16:50N 19°41' W 138°46'1 0.6 1016.4 25.5
2017-Sep-15 15:50N 19°41' W 138°46'1 1.3 1015.7 25.5
2017-Sep-15 14:50N 19°41' W 138°44'0 0.0 1014.9 25.5
2017-Sep-15 13:50N 19°41' W 138°44'1 0.6 1014.6 25.5
2017-Sep-15 12:50N 19°42' W 138°44'6 5.6 1014.3 25.5
2017-Sep-15 11:50N 19°44' W 138°39'0 0.0 1014.4 25.5
2017-Sep-15 10:50N 19°44' W 138°39'1 0.1 1014.6 25.5
2017-Sep-15 06:50N 19°44' W 138°38'1 1.3 1015.9 25.2
2017-Sep-15 05:50N 19°45' W 138°37'1 0.8 1015.7 25.2
2017-Sep-15 04:50N 19°46' W 138°37'1 0.6 1015.0 25.2
2017-Sep-15 03:50N 19°46' W 138°37'2 1.8 1014.4 25.3
2017-Sep-15 02:50N 19°46' W 138°35'3 3.1 1013.6 25.3
2017-Sep-15 01:50N 19°47' W 138°32'0 0.0 1013.2 25.3
2017-Sep-15 00:50N 19°47' W 138°32'2 1.8 1013.0 25.4
2017-Sep-14 23:50N 19°48' W 138°31'3 3.1 1013.1 25.4
2017-Sep-14 22:50N 19°49' W 138°28'1 0.2 1013.5 25.4
2017-Sep-14 19:50N 19°49' W 138°27'0 0.0 1015.1 25.3
2017-Sep-14 18:50N 19°49' W 138°27'2 1.8 1015.4 25.2
2017-Sep-14 17:50N 19°50' W 138°25'1 1.1 1015.2 25.2
2017-Sep-14 16:50N 19°50' W 138°24'0 0.0 1014.8 25.2
2017-Sep-14 15:50N 19°50' W 138°24'3 1.7 1014.4 25.2
2017-Sep-14 13:50N 19°52' W 138°21'0 0.0 1013.5 25.2
2017-Sep-14 12:50N 19°52' W 138°21'5 4.6 1013.2 25.2
2017-Sep-14 11:50N 19°54' W 138°17'0 0.0 1013.4 25.2
2017-Sep-14 07:50N 19°54' W 138°17'2 2.1 1014.9 25.3
2017-Sep-14 06:50N 19°55' W 138°15'1 1.3 1015.0 25.3
2017-Sep-14 05:50N 19°56' W 138°14'0 0.0 1014.6 25.4
2017-Sep-14 04:50N 19°56' W 138°14'2 1.7 1014.0 25.5
2017-Sep-14 03:50N 19°56' W 138°13'1 0.8 1013.3 25.5
2017-Sep-14 02:50N 19°57' W 138°12'1 1.3 1012.7 25.6
2017-Sep-14 01:50N 19°58' W 138°11'0 0.0 1012.4 25.6
2017-Sep-14 00:50N 19°58' W 138°11'1 1.3 1012.5 25.6
2017-Sep-13 23:50N 19°59' W 138°10'0 0.0 1012.5 25.7
2017-Sep-13 22:50N 19°59' W 138°10'3 1.1 1012.9 25.5
2017-Sep-13 19:50N 19°59' W 138°07'0 0.0 1014.8 25.3
2017-Sep-13 18:50N 19°59' W 138°07'1 0.6 1015.2 25.4
2017-Sep-13 17:50N 20°00' W 138°07'0 0.0 1015.2 25.4
2017-Sep-13 16:50N 20°00' W 138°07'2 1.7 1014.8 25.2
2017-Sep-13 15:50N 20°00' W 138°05'1 1.3 1014.5 25.3
2017-Sep-13 14:50N 20°01' W 138°04'1 0.6 1014.0 25.2
2017-Sep-13 13:50N 20°00' W 138°04'1 1.3 1013.4 25.4
2017-Sep-13 12:50N 20°01' W 138°02'5 4.5 1013.3 25.5
2017-Sep-13 11:50N 20°01' W 137°58'5 5.1 1013.3 25.5
2017-Sep-13 10:50N 20°01' W 138°03'5 1.7 1013.7 25.4
2017-Sep-13 07:50N 20°01' W 137°58'1 0.6 1014.7 25.5
2017-Sep-13 05:50N 20°01' W 137°56'1 1.3 1014.9 25.5
2017-Sep-13 04:50N 20°02' W 137°55'1 0.8 1014.1 25.5
2017-Sep-13 03:50N 20°02' W 137°55'1 1.3 1013.4 25.5
2017-Sep-13 02:50N 20°03' W 137°53'1 0.8 1012.9 25.6
2017-Sep-13 01:50N 20°04' W 137°53'0 0.0 1012.6 25.6
2017-Sep-13 00:50N 20°04' W 137°53'2 2.1 1012.7 25.6
2017-Sep-12 23:50N 20°05' W 137°51'0 0.0 1012.7 25.6
2017-Sep-12 22:50N 20°05' W 137°51'2 0.6
2017-Sep-12 18:50N 20°07' W 137°49'0 0.0 1014.9 25.4
2017-Sep-12 17:50N 20°07' W 137°49'0 0.0 1015.0 25.4
2017-Sep-12 16:50N 20°07' W 137°49'1 0.6 1014.6 25.4
2017-Sep-12 15:50N 20°07' W 137°49'0 0.0 1014.1 25.3
2017-Sep-12 14:50N 20°07' W 137°49'0 0.0 1013.6 25.4
2017-Sep-12 13:50N 20°07' W 137°49'0 0.0 1013.5 25.4
2017-Sep-12 12:50N 20°07' W 137°49'1 1.3 1013.4 25.4
2017-Sep-12 11:50N 20°06' W 137°49'2 1.9 1013.8 25.4
2017-Sep-12 10:50N 20°08' W 137°49'2 0.5 1014.1 25.5
2017-Sep-12 06:50N 20°06' W 137°49'1 0.6 1015.6 25.4
2017-Sep-12 05:50N 20°06' W 137°48'1 0.6 1015.2 25.4
2017-Sep-12 04:50N 20°06' W 137°47'1 0.6 1014.5 25.4
2017-Sep-12 03:50N 20°06' W 137°47'1 0.8 1013.7 25.4
2017-Sep-12 02:50N 20°07' W 137°46'1 0.6 1013.4 25.4
2017-Sep-12 01:50N 20°07' W 137°46'0 0.0 1013.0 25.4
2017-Sep-12 00:50N 20°07' W 137°46'1 1.1 1012.8 25.5
2017-Sep-11 23:50N 20°07' W 137°44'0 0.0 1013.0 25.5
2017-Sep-11 22:50N 20°07' W 137°44'4 0.9 1013.5 25.4
2017-Sep-11 18:50N 20°08' W 137°41'   1015.4 25.2

Dump ship's entire track history